createdAt,value
2017-11-19T00:00:53.912Z,97282
2017-11-19T00:03:20.580Z,97280
2017-11-19T00:05:48.096Z,97276
2017-11-19T00:08:14.807Z,97291
2017-11-19T00:10:42.391Z,97288
2017-11-19T00:13:09.123Z,97290
2017-11-19T00:15:35.863Z,97291
2017-11-19T00:18:02.560Z,97280
2017-11-19T00:20:29.241Z,97277
2017-11-19T00:22:56.083Z,97279
2017-11-19T00:25:22.888Z,97281
2017-11-19T00:27:49.618Z,97279
2017-11-19T00:30:16.374Z,97272
2017-11-19T00:32:43.121Z,97276
2017-11-19T00:35:10.708Z,97281
2017-11-19T00:37:38.175Z,97266
2017-11-19T00:40:05.724Z,97260
2017-11-19T00:42:32.401Z,97267
2017-11-19T00:44:59.088Z,97271
2017-11-19T00:47:25.763Z,97273
2017-11-19T00:49:53.193Z,97277
2017-11-19T00:52:19.892Z,97275
2017-11-19T00:54:46.585Z,97281
2017-11-19T00:57:13.235Z,97277
2017-11-19T00:59:39.967Z,97271
2017-11-19T01:02:06.655Z,97278
2017-11-19T01:04:33.353Z,97278
2017-11-19T01:07:00.025Z,97269
2017-11-19T01:09:27.459Z,97260
2017-11-19T01:11:54.177Z,97253
2017-11-19T01:14:21.831Z,97247
2017-11-19T01:16:48.540Z,97248
2017-11-19T01:19:15.985Z,97250
2017-11-19T01:21:42.644Z,97260
2017-11-19T01:24:10.077Z,97265
2017-11-19T01:26:36.799Z,97270
2017-11-19T01:29:03.464Z,97262
2017-11-19T01:31:30.237Z,97260
2017-11-19T01:33:57.688Z,97261
2017-11-19T01:36:25.161Z,97257
2017-11-19T01:38:52.742Z,97256
2017-11-19T01:41:19.447Z,97246
2017-11-19T01:43:46.167Z,97243
2017-11-19T01:46:12.887Z,97240
2017-11-19T01:48:39.564Z,97233
2017-11-19T01:51:06.322Z,97235
2017-11-19T01:53:33.022Z,97232
2017-11-19T01:55:59.710Z,97238
2017-11-19T01:58:26.429Z,97242
2017-11-19T02:00:53.073Z,97235
2017-11-19T02:03:19.843Z,97238
2017-11-19T02:05:46.512Z,97237
2017-11-19T02:08:13.464Z,97231
2017-11-19T02:10:40.133Z,97230
2017-11-19T02:13:06.886Z,97226
2017-11-19T02:15:33.574Z,97220
2017-11-19T02:18:01.003Z,97218
2017-11-19T02:20:28.443Z,97219
2017-11-19T02:22:55.187Z,97213
2017-11-19T02:25:21.872Z,97221
2017-11-19T02:27:49.291Z,97211
2017-11-19T02:30:16.145Z,97204
2017-11-19T02:32:42.822Z,97198
2017-11-19T02:35:09.512Z,97204
2017-11-19T02:37:36.181Z,97204
2017-11-19T02:40:02.899Z,97208
2017-11-19T02:42:29.593Z,97209
2017-11-19T02:44:57.003Z,97204
2017-11-19T02:47:23.686Z,97201
2017-11-19T02:49:50.339Z,97199
2017-11-19T02:52:16.984Z,97201
2017-11-19T02:54:43.651Z,97213
2017-11-19T02:57:10.378Z,97203
2017-11-19T02:59:37.039Z,97199
2017-11-19T03:02:03.757Z,97194
2017-11-19T03:04:30.413Z,97190
2017-11-19T03:06:57.846Z,97189
2017-11-19T03:09:24.536Z,97190
2017-11-19T03:11:51.232Z,97194
2017-11-19T03:14:17.944Z,97191
2017-11-19T03:16:44.605Z,97188
2017-11-19T03:19:11.274Z,97192
2017-11-19T03:21:37.939Z,97195
2017-11-19T03:24:04.646Z,97192
2017-11-19T03:26:31.350Z,97199
2017-11-19T03:28:58.033Z,97195
2017-11-19T03:31:24.741Z,97190
2017-11-19T03:33:51.430Z,97189
2017-11-19T03:36:18.056Z,97182
2017-11-19T03:38:44.773Z,97178
2017-11-19T03:41:11.462Z,97187
2017-11-19T03:43:38.928Z,97186
2017-11-19T03:46:06.387Z,97194
2017-11-19T03:48:33.084Z,97181
2017-11-19T03:50:59.824Z,97183
2017-11-19T03:53:26.461Z,97183
2017-11-19T03:55:53.232Z,97177
2017-11-19T03:58:19.933Z,97178
2017-11-19T04:00:46.585Z,97171
2017-11-19T04:03:13.317Z,97174
2017-11-19T04:05:39.997Z,97168
2017-11-19T04:08:06.713Z,97181
2017-11-19T04:10:33.421Z,97177
2017-11-19T04:13:00.825Z,97184
2017-11-19T04:15:27.543Z,97179
2017-11-19T04:17:54.200Z,97176
2017-11-19T04:20:20.907Z,97176
2017-11-19T04:22:47.588Z,97168
2017-11-19T04:25:14.385Z,97173
2017-11-19T04:27:41.825Z,97175
2017-11-19T04:30:08.555Z,97172
2017-11-19T04:32:35.271Z,97165
2017-11-19T04:35:01.957Z,97158
2017-11-19T04:37:28.711Z,97158
2017-11-19T04:39:55.428Z,97157
2017-11-19T04:42:22.121Z,97158
2017-11-19T04:44:49.558Z,97152
2017-11-19T04:47:16.272Z,97152
2017-11-19T04:49:42.943Z,97151
2017-11-19T04:52:09.626Z,97147
2017-11-19T04:54:36.350Z,97143
2017-11-19T04:57:03.052Z,97138
2017-11-19T04:59:29.768Z,97126
2017-11-19T05:01:56.484Z,97119
2017-11-19T05:04:23.130Z,97112
2017-11-19T05:06:50.566Z,97111
2017-11-19T05:09:17.354Z,97113
2017-11-19T05:11:44.089Z,97110
2017-11-19T05:14:12.486Z,97105
2017-11-19T05:16:39.168Z,97105
2017-11-19T05:19:05.847Z,97108
2017-11-19T05:21:33.289Z,97104
2017-11-19T05:23:59.986Z,97100
2017-11-19T05:26:26.629Z,97101
2017-11-19T05:28:53.303Z,97096
2017-11-19T05:31:19.970Z,97093
2017-11-19T05:33:46.712Z,97091
2017-11-19T05:36:14.199Z,97090
2017-11-19T05:38:40.883Z,97085
2017-11-19T05:41:07.552Z,97081
2017-11-19T05:43:34.267Z,97082
2017-11-19T05:46:00.930Z,97096
2017-11-19T05:48:27.617Z,97098
2017-11-19T05:50:54.308Z,97106
2017-11-19T05:53:20.974Z,97101
2017-11-19T05:55:47.639Z,97097
2017-11-19T05:58:14.315Z,97100
2017-11-19T06:00:41.012Z,97104
2017-11-19T06:03:08.433Z,97102
2017-11-19T06:05:35.119Z,97096
2017-11-19T06:08:01.830Z,97098
2017-11-19T06:10:28.575Z,97101
2017-11-19T06:12:55.310Z,97103
2017-11-19T06:15:22.007Z,97100
2017-11-19T06:17:48.678Z,97105
2017-11-19T06:20:15.421Z,97107
2017-11-19T06:22:42.077Z,97099
2017-11-19T06:25:08.752Z,97098
2017-11-19T06:27:35.443Z,97099
2017-11-19T06:30:02.129Z,97098
2017-11-19T06:32:28.826Z,97099
2017-11-19T06:34:55.473Z,97096
2017-11-19T06:37:22.121Z,97095
2017-11-19T06:39:48.805Z,97092
2017-11-19T06:42:15.487Z,97085
2017-11-19T06:44:43.051Z,97086
2017-11-19T06:47:09.819Z,97084
2017-11-19T06:49:36.541Z,97089
2017-11-19T06:52:03.276Z,97088
2017-11-19T06:54:29.957Z,97084
2017-11-19T06:56:57.423Z,97084
2017-11-19T06:59:24.152Z,97092
2017-11-19T07:01:50.814Z,97089
2017-11-19T07:04:17.505Z,97088
2017-11-19T07:06:44.920Z,97080
2017-11-19T07:09:11.625Z,97076
2017-11-19T07:11:38.315Z,97074
2017-11-19T07:14:05.048Z,97074
2017-11-19T07:16:31.747Z,97066
2017-11-19T07:18:58.452Z,97069
2017-11-19T07:21:25.150Z,97077
2017-11-19T07:23:51.871Z,97084
2017-11-19T07:26:18.560Z,97089
2017-11-19T07:28:45.291Z,97090
2017-11-19T07:31:12.089Z,97090
2017-11-19T07:33:38.889Z,97088
2017-11-19T07:36:05.567Z,97082
2017-11-19T07:38:32.306Z,97081
2017-11-19T07:40:59.010Z,97072
2017-11-19T07:43:26.240Z,97056
2017-11-19T07:45:52.945Z,97052
2017-11-19T07:48:19.635Z,97049
2017-11-19T07:50:46.456Z,97050
2017-11-19T07:53:13.189Z,97049
2017-11-19T07:55:39.853Z,97041
2017-11-19T07:58:06.534Z,97042
2017-11-19T08:00:33.329Z,97049
2017-11-19T08:03:00.813Z,97056
2017-11-19T08:05:27.548Z,97057
2017-11-19T08:07:54.269Z,97057
2017-11-19T08:10:21.709Z,97067
2017-11-19T08:12:48.384Z,97064
2017-11-19T08:15:15.839Z,97057
2017-11-19T08:17:43.285Z,97042
2017-11-19T08:20:10.039Z,97039
2017-11-19T08:22:36.838Z,97035
2017-11-19T08:25:03.615Z,97040
2017-11-19T08:27:31.107Z,97032
2017-11-19T08:29:58.613Z,97029
2017-11-19T08:32:25.273Z,97028
2017-11-19T08:34:52.273Z,97028
2017-11-19T08:37:19.142Z,97026
2017-11-19T08:39:45.929Z,97027
2017-11-19T08:42:12.606Z,97027
2017-11-19T08:44:39.468Z,97025
2017-11-19T08:47:06.303Z,97032
2017-11-19T08:49:32.984Z,97037
2017-11-19T08:51:59.690Z,97034
2017-11-19T08:54:26.378Z,97045
2017-11-19T08:56:53.111Z,97048
2017-11-19T08:59:19.838Z,97050
2017-11-19T09:01:46.553Z,97044
2017-11-19T09:04:14.033Z,97038
2017-11-19T09:06:40.807Z,97038
2017-11-19T09:09:07.487Z,97037
2017-11-19T09:11:34.928Z,97036
2017-11-19T09:14:01.610Z,97041
2017-11-19T09:16:28.305Z,97043
2017-11-19T09:18:55.014Z,97042
2017-11-19T09:21:21.758Z,97036
2017-11-19T09:23:48.500Z,97034
2017-11-19T09:26:15.211Z,97040
2017-11-19T09:28:42.648Z,97042
2017-11-19T09:31:10.021Z,97036
2017-11-19T09:33:36.713Z,97036
2017-11-19T09:36:03.439Z,97026
2017-11-19T09:38:30.109Z,97016
2017-11-19T09:40:56.799Z,97012
2017-11-19T09:43:23.515Z,97012
2017-11-19T09:45:50.921Z,97009
2017-11-19T09:48:17.634Z,97012
2017-11-19T09:50:44.348Z,97005
2017-11-19T09:53:11.035Z,97006
2017-11-19T09:55:37.716Z,96999
2017-11-19T09:58:04.642Z,96991
2017-11-19T10:00:32.122Z,96987
2017-11-19T10:02:58.836Z,96988
2017-11-19T10:05:25.551Z,96988
2017-11-19T10:07:52.414Z,97004
2017-11-19T10:10:19.924Z,97008
2017-11-19T10:12:47.076Z,97015
2017-11-19T10:15:13.768Z,97015
2017-11-19T10:17:40.513Z,97015
2017-11-19T10:20:07.278Z,97008
2017-11-19T10:22:35.008Z,96994
2017-11-19T10:25:02.525Z,96997
2017-11-19T10:27:29.968Z,96993
2017-11-19T10:29:57.396Z,96996
2017-11-19T10:32:25.073Z,96996
2017-11-19T10:34:51.779Z,96984
2017-11-19T10:37:18.600Z,96979
2017-11-19T10:39:46.153Z,96982
2017-11-19T10:42:12.818Z,96979
2017-11-19T10:44:39.576Z,96962
2017-11-19T10:47:06.392Z,96949
2017-11-19T10:49:33.817Z,96943
2017-11-19T10:52:00.596Z,96937
2017-11-19T10:54:28.082Z,96939
2017-11-19T10:56:54.780Z,96943
2017-11-19T10:59:21.506Z,96937
2017-11-19T11:01:48.236Z,96934
2017-11-19T11:04:14.964Z,96935
2017-11-19T11:06:41.655Z,96935
2017-11-19T11:09:09.092Z,96930
2017-11-19T11:11:35.763Z,96927
2017-11-19T11:14:02.443Z,96934
2017-11-19T11:16:29.195Z,96931
2017-11-19T11:18:55.850Z,96930
2017-11-19T11:21:22.535Z,96923
2017-11-19T11:23:49.261Z,96916
2017-11-19T11:26:15.964Z,96914
2017-11-19T11:28:42.648Z,96915
2017-11-19T11:31:09.331Z,96914
2017-11-19T11:33:36.762Z,96915
2017-11-19T11:36:03.436Z,96922
2017-11-19T11:38:30.120Z,96924
2017-11-19T11:40:56.842Z,96921
2017-11-19T11:43:23.542Z,96913
2017-11-19T11:45:50.237Z,96904
2017-11-19T11:48:16.996Z,96899
2017-11-19T11:50:43.786Z,96902
2017-11-19T11:53:11.316Z,96909
2017-11-19T11:55:38.014Z,96906
2017-11-19T11:58:04.717Z,96908
2017-11-19T12:00:31.528Z,96914
2017-11-19T12:02:58.262Z,96915
2017-11-19T12:05:24.936Z,96905
2017-11-19T12:07:51.629Z,96901
2017-11-19T12:10:18.371Z,96908
2017-11-19T12:12:45.091Z,96912
2017-11-19T12:15:16.955Z,96912
2017-11-19T12:17:44.625Z,96905
2017-11-19T12:20:12.137Z,96901
2017-11-19T12:22:38.972Z,96899
2017-11-19T12:25:05.708Z,96912
2017-11-19T12:27:32.431Z,96909
2017-11-19T12:29:59.908Z,96904
2017-11-19T12:32:26.599Z,96908
2017-11-19T12:34:53.311Z,96916
2017-11-19T12:37:20.037Z,96911
2017-11-19T12:39:46.818Z,96911
2017-11-19T12:42:13.493Z,96908
2017-11-19T12:44:40.219Z,96911
2017-11-19T12:47:06.918Z,96911
2017-11-19T12:49:33.686Z,96910
2017-11-19T12:52:00.390Z,96918
2017-11-19T12:54:27.126Z,96928
2017-11-19T12:56:54.565Z,96937
2017-11-19T12:59:21.252Z,96934
2017-11-19T13:01:47.933Z,96935
2017-11-19T13:04:14.660Z,96942
2017-11-19T13:06:41.374Z,96943
2017-11-19T13:09:08.097Z,96943
2017-11-19T13:11:35.521Z,96934
2017-11-19T13:14:02.215Z,96939
2017-11-19T13:16:29.710Z,96935
2017-11-19T13:18:56.363Z,96952
2017-11-19T13:21:23.089Z,96962
2017-11-19T13:23:49.795Z,96961
2017-11-19T13:26:17.265Z,96966
2017-11-19T13:28:44.738Z,96976
2017-11-19T13:31:11.408Z,96982
2017-11-19T13:33:38.106Z,96983
2017-11-19T13:36:05.668Z,96989
2017-11-19T13:38:33.080Z,96986
2017-11-19T13:40:59.771Z,96986
2017-11-19T13:43:27.227Z,96991
2017-11-19T13:45:53.941Z,96993
2017-11-19T13:48:20.696Z,96992
2017-11-19T13:50:47.379Z,97003
2017-11-19T13:53:14.808Z,97002
2017-11-19T13:55:41.557Z,96997
2017-11-19T13:58:08.240Z,96991
2017-11-19T14:00:35.027Z,96993
2017-11-19T14:03:01.745Z,96997
2017-11-19T14:05:28.405Z,97011
2017-11-19T14:07:55.085Z,97011
2017-11-19T14:10:22.528Z,97009
2017-11-19T14:12:49.315Z,97008
2017-11-19T14:15:16.138Z,97011
2017-11-19T14:17:43.610Z,97014
2017-11-19T14:20:11.148Z,97010
2017-11-19T14:22:37.897Z,97006
2017-11-19T14:25:05.379Z,97006
2017-11-19T14:27:32.826Z,97002
2017-11-19T14:30:00.277Z,97003
2017-11-19T14:32:27.009Z,97002
2017-11-19T14:34:53.734Z,97005
2017-11-19T14:37:20.460Z,97016
2017-11-19T14:39:47.421Z,97011
2017-11-19T14:42:14.321Z,97008
2017-11-19T14:44:41.963Z,97009
2017-11-19T14:47:08.678Z,97014
2017-11-19T14:49:35.377Z,97013
2017-11-19T14:52:02.880Z,97019
2017-11-19T14:54:29.560Z,97022
2017-11-19T14:56:56.257Z,97024
2017-11-19T14:59:22.951Z,97027
2017-11-19T15:01:49.696Z,97024
2017-11-19T15:04:16.470Z,97029
2017-11-19T15:06:43.880Z,97028
2017-11-19T15:09:10.675Z,97029
2017-11-19T15:11:37.412Z,97028
2017-11-19T15:14:04.156Z,97029
2017-11-19T15:16:31.597Z,97026
2017-11-19T15:18:59.074Z,97028
2017-11-19T15:21:26.558Z,97024
2017-11-19T15:23:53.288Z,97028
2017-11-19T15:26:20.788Z,97030
2017-11-19T15:28:47.505Z,97032
2017-11-19T15:31:14.212Z,97039
2017-11-19T15:33:40.922Z,97042
2017-11-19T15:36:07.623Z,97043
2017-11-19T15:38:35.493Z,97044
2017-11-19T15:41:02.184Z,97051
2017-11-19T15:43:28.933Z,97055
2017-11-19T15:45:55.621Z,97055
2017-11-19T15:48:23.268Z,97049
2017-11-19T15:50:50.113Z,97051
2017-11-19T15:53:17.011Z,97055
2017-11-19T15:55:43.736Z,97058
2017-11-19T15:58:10.463Z,97060
2017-11-19T16:00:39.060Z,97058
2017-11-19T16:03:06.575Z,97062
2017-11-19T16:05:33.307Z,97072
2017-11-19T16:08:00.989Z,97076
2017-11-19T16:10:27.737Z,97075
2017-11-19T16:12:54.498Z,97077
2017-11-19T16:15:21.195Z,97086
2017-11-19T16:17:48.331Z,97092
2017-11-19T16:20:16.061Z,97099
2017-11-19T16:22:43.524Z,97105
2017-11-19T16:25:10.273Z,97119
2017-11-19T16:27:37.752Z,97115
2017-11-19T16:30:04.470Z,97121
2017-11-19T16:32:31.236Z,97124
2017-11-19T16:34:59.682Z,97129
2017-11-19T16:37:26.443Z,97138
2017-11-19T16:39:53.751Z,97143
2017-11-19T16:42:20.481Z,97142
2017-11-19T16:44:47.231Z,97145
2017-11-19T16:47:13.924Z,97154
2017-11-19T16:49:40.639Z,97160
2017-11-19T16:52:07.389Z,97164
2017-11-19T16:54:34.166Z,97166
2017-11-19T16:57:00.972Z,97158
2017-11-19T16:59:27.665Z,97157
2017-11-19T17:01:55.138Z,97155
2017-11-19T17:04:22.687Z,97155
2017-11-19T17:06:50.321Z,97149
2017-11-19T17:09:17.071Z,97161
2017-11-19T17:11:43.768Z,97159
2017-11-19T17:14:10.678Z,97168
2017-11-19T17:16:37.424Z,97166
2017-11-19T17:19:04.159Z,97166
2017-11-19T17:21:31.046Z,97169
2017-11-19T17:23:57.775Z,97173
2017-11-19T17:26:25.223Z,97171
2017-11-19T17:28:51.952Z,97172
2017-11-19T17:31:18.693Z,97178
2017-11-19T17:33:45.384Z,97181
2017-11-19T17:36:18.088Z,97186
2017-11-19T17:38:44.782Z,97189
2017-11-19T17:41:11.560Z,97190
2017-11-19T17:43:38.257Z,97187
2017-11-19T17:46:05.000Z,97182
2017-11-19T17:48:31.714Z,97188
2017-11-19T17:50:58.442Z,97191
2017-11-19T17:53:25.135Z,97185
2017-11-19T17:55:51.828Z,97188
2017-11-19T17:58:18.527Z,97185
2017-11-19T18:00:45.265Z,97183
2017-11-19T18:03:11.994Z,97182
2017-11-19T18:05:38.738Z,97186
2017-11-19T18:08:05.421Z,97185
2017-11-19T18:10:32.830Z,97193
2017-11-19T18:12:59.560Z,97195
2017-11-19T18:15:26.273Z,97199
2017-11-19T18:17:53.767Z,97201
2017-11-19T18:20:20.464Z,97199
2017-11-19T18:22:47.727Z,97194
2017-11-19T18:25:15.179Z,97197
2017-11-19T18:27:41.960Z,97190
2017-11-19T18:30:08.689Z,97185
2017-11-19T18:32:36.233Z,97188
2017-11-19T18:35:03.016Z,97185
2017-11-19T18:37:29.756Z,97183
2017-11-19T18:39:56.467Z,97178
2017-11-19T18:42:23.248Z,97178
2017-11-19T18:44:49.936Z,97180
2017-11-19T18:47:16.627Z,97181
2017-11-19T18:49:43.329Z,97187
2017-11-19T18:52:10.015Z,97197
2017-11-19T18:54:36.736Z,97198
2017-11-19T18:57:04.264Z,97205
2017-11-19T18:59:31.001Z,97210
2017-11-19T19:01:57.684Z,97207
2017-11-19T19:04:25.143Z,97210
2017-11-19T19:06:51.800Z,97211
2017-11-19T19:09:19.297Z,97215
2017-11-19T19:11:45.973Z,97215
2017-11-19T19:14:12.760Z,97208
2017-11-19T19:16:40.155Z,97213
2017-11-19T19:19:06.828Z,97213
2017-11-19T19:21:34.878Z,97221
2017-11-19T19:24:01.592Z,97223
2017-11-19T19:26:28.332Z,97221
2017-11-19T19:28:55.025Z,97226
2017-11-19T19:31:21.735Z,97233
2017-11-19T19:33:48.462Z,97237
2017-11-19T19:36:15.196Z,97237
2017-11-19T19:38:42.633Z,97242
2017-11-19T19:41:09.333Z,97242
2017-11-19T19:43:36.024Z,97244
2017-11-19T19:46:02.727Z,97240
2017-11-19T19:48:29.492Z,97230
2017-11-19T19:50:56.690Z,97233
2017-11-19T19:53:23.416Z,97231
2017-11-19T19:55:50.895Z,97243
2017-11-19T19:58:17.636Z,97251
2017-11-19T20:00:44.448Z,97250
2017-11-19T20:03:11.186Z,97254
2017-11-19T20:05:37.940Z,97257
2017-11-19T20:08:04.661Z,97246
2017-11-19T20:10:31.443Z,97247
2017-11-19T20:12:58.167Z,97255
2017-11-19T20:15:25.161Z,97267
2017-11-19T20:17:52.678Z,97258
2017-11-19T20:20:19.435Z,97261
2017-11-19T20:22:46.273Z,97260
2017-11-19T20:25:13.006Z,97258
2017-11-19T20:27:40.516Z,97261
2017-11-19T20:30:07.269Z,97261
2017-11-19T20:32:33.917Z,97265
2017-11-19T20:35:00.673Z,97263
2017-11-19T20:37:27.397Z,97263
2017-11-19T20:39:54.110Z,97269
2017-11-19T20:42:20.901Z,97269
2017-11-19T20:44:47.639Z,97271
2017-11-19T20:47:14.384Z,97266
2017-11-19T20:49:41.129Z,97273
2017-11-19T20:52:07.850Z,97269
2017-11-19T20:54:35.387Z,97271
2017-11-19T20:57:02.129Z,97272
2017-11-19T20:59:28.885Z,97280
2017-11-19T21:01:56.345Z,97281
2017-11-19T21:04:23.855Z,97274
2017-11-19T21:06:50.716Z,97280
2017-11-19T21:09:17.443Z,97287
2017-11-19T21:11:44.152Z,97294
2017-11-19T21:14:10.827Z,97293
2017-11-19T21:16:37.538Z,97296
2017-11-19T21:19:05.000Z,97293
2017-11-19T21:21:32.469Z,97289
2017-11-19T21:23:59.924Z,97288
2017-11-19T21:26:27.364Z,97285
2017-11-19T21:28:54.075Z,97281
2017-11-19T21:31:20.732Z,97287
2017-11-19T21:33:47.500Z,97288
2017-11-19T21:36:14.229Z,97291
2017-11-19T21:38:40.903Z,97297
2017-11-19T21:41:08.360Z,97301
2017-11-19T21:43:35.799Z,97297
2017-11-19T21:46:02.510Z,97300
2017-11-19T21:48:29.236Z,97306
2017-11-19T21:50:55.950Z,97295
2017-11-19T21:53:23.409Z,97300
2017-11-19T21:55:50.872Z,97302
2017-11-19T21:58:17.565Z,97293
2017-11-19T22:00:44.319Z,97290
2017-11-19T22:03:11.016Z,97304
2017-11-19T22:05:37.693Z,97296
2017-11-19T22:08:04.336Z,97296
2017-11-19T22:10:31.028Z,97308
2017-11-19T22:12:58.460Z,97303
2017-11-19T22:15:25.302Z,97318
2017-11-19T22:17:51.970Z,97314
2017-11-19T22:20:18.691Z,97311
2017-11-19T22:22:45.381Z,97303
2017-11-19T22:25:12.806Z,97305
2017-11-19T22:27:39.578Z,97323
2017-11-19T22:30:07.075Z,97322
2017-11-19T22:32:33.839Z,97308
2017-11-19T22:35:00.555Z,97313
2017-11-19T22:37:27.224Z,97317
2017-11-19T22:39:53.950Z,97331
2017-11-19T22:42:20.787Z,97311
2017-11-19T22:44:47.497Z,97313
2017-11-19T22:47:14.940Z,97325
2017-11-19T22:49:41.618Z,97324
2017-11-19T22:52:09.100Z,97312
2017-11-19T22:54:35.785Z,97328
2017-11-19T22:57:02.454Z,97338
2017-11-19T22:59:29.880Z,97336
2017-11-19T23:01:57.324Z,97321
2017-11-19T23:04:24.033Z,97337
2017-11-19T23:06:50.791Z,97336
2017-11-19T23:09:17.548Z,97337
2017-11-19T23:11:44.255Z,97351
2017-11-19T23:14:11.740Z,97359
2017-11-19T23:16:38.423Z,97341
2017-11-19T23:19:05.090Z,97339
2017-11-19T23:21:31.822Z,97339
2017-11-19T23:23:58.507Z,97339
2017-11-19T23:26:25.207Z,97318
2017-11-19T23:28:51.928Z,97317
2017-11-19T23:31:18.635Z,97307
2017-11-19T23:33:45.333Z,97302
2017-11-19T23:36:12.028Z,97309
2017-11-19T23:38:38.719Z,97300
2017-11-19T23:41:05.416Z,97293
2017-11-19T23:43:32.121Z,97297
2017-11-19T23:45:58.822Z,97300
2017-11-19T23:48:25.500Z,97302
2017-11-19T23:50:52.228Z,97289
2017-11-19T23:53:18.916Z,97282
2017-11-19T23:55:46.398Z,97285
2017-11-19T23:58:13.095Z,97291
